BIENTÔT MET'MAP
version 2.0 !

Prévue avant fin octobre,
la nouvelle version sera
plus belle, plus complète
et hébergée sur un serveur
3 fois plus puissant...
et toujours gratuite !


Pas compatible ?
Essayez la version Mobile !

SE CONNECTER : | S'inscrire | Disclaimer | Découvrir Orbifly |
Code OACI :
Lgende : VFR VFR Marginal IFR IFR Intensif IFR Trs Intensif
Visi :
Plafond :
>= 8 km
>= 3000ft
5 8 km
1000 3000 ft
1500m 5 km
500 1000 ft
800 1500m
200 500 ft
< 800m
< 200 ft

METAR - EDDL Düsseldorf Int. - 27 Jan 2020 23:11 UTC
Data Sources :     NOAA   


- Altitude de l'aérodrome : 147 ft
- Code IATA : DUS
- Pas de NOTAMs connus.


EDDL - Düsseldorf Int.

Dernier METAR connu : 2015/08/11 07:50 EDDL 110750Z 26003KT 6000 NSC 19/16 Q1018 NOSIG
TAF TAF EDDL
Valide du 27 à 18h jusqu'au 29 à 00h UTC


271700Z 2718/2824 17011KT 9999 BKN025
PROB30
TEMPO 2720/2801 RA
TEMPO 2801/2814 SHRA BKN020TCU
BECMG 2803/2806 23015G25KT
PROB30
TEMPO 2804/2810 27025G40KT TSGS BKN020CB
BECMG 2806/2808 25020G30KT
TEMPO 2810/2814 26025G40KT
BECMG 2815/2817 24015G25KT
BECMG 2817/2819 23012KT

Source NOAA


MET'MAP, la Météo Aéronautique d'un coup d'oeil ! - Copyright ORBIFLY Décembre 2007

Développement & Programmation : Alexandra Zaïnal
Co-Développement : Marc-Olivier Méhu
Soutien technique & logistique : Manuel Goepfert
Conception & Financement : Baudouin d'Aumeries